Time;durP1;ratioP1;P1;durP2;ratioP2;P2;SDS_P1;SDS_P2;PMS_P1;PMS_P2;Temp;Humidity;BMP_temperature;BMP_pressure;BME280_temperature;BME280_humidity;BME280_pressure;Samples;Min_cycle;Max_cycle;Signal;HPM_P1;HPM_P2
2023/10/05 00:00:57;;;;;;;17.23;9.02;;;22.40;75.40;;;;;;6248529;23;20012;-74
2023/10/05 00:03:23;;;;;;;14.18;9.05;;;22.40;75.20;;;;;;6251308;23;20004;-73
2023/10/05 00:05:49;;;;;;;14.82;8.38;;;22.40;75.10;;;;;;6243932;23;20043;-74
2023/10/05 00:08:15;;;;;;;14.70;8.23;;;22.40;74.80;;;;;;6238782;23;20016;-72
2023/10/05 00:10:40;;;;;;;11.43;7.68;;;22.40;74.80;;;;;;6214458;23;20347;-73
2023/10/05 00:13:07;;;;;;;12.05;8.55;;;22.30;74.80;;;;;;6187562;23;20047;-73
2023/10/05 00:15:36;;;;;;;14.27;8.15;;;22.30;75.00;;;;;;6214048;23;20327;-73
2023/10/05 00:18:05;;;;;;;11.90;8.65;;;22.30;74.70;;;;;;6213597;23;20393;-72
2023/10/05 00:20:37;;;;;;;15.15;8.50;;;22.30;74.70;;;;;;6213754;23;19997;-74
2023/10/05 00:23:07;;;;;;;18.83;8.87;;;22.20;75.10;;;;;;6213819;23;20000;-73
2023/10/05 00:25:33;;;;;;;13.95;7.85;;;22.20;74.60;;;;;;6213915;23;20223;-73
2023/10/05 00:28:04;;;;;;;11.45;8.30;;;22.20;74.80;;;;;;6213906;23;20001;-74
2023/10/05 00:30:30;;;;;;;17.50;8.38;;;22.20;74.70;;;;;;6213285;23;20008;-73
2023/10/05 00:32:58;;;;;;;14.18;8.25;;;22.20;74.70;;;;;;6212171;23;20019;-73
2023/10/05 00:35:29;;;;;;;14.05;8.48;;;22.10;74.70;;;;;;6213348;23;20041;-72
2023/10/05 00:37:59;;;;;;;13.40;8.68;;;22.20;75.20;;;;;;6188658;23;20072;-73
2023/10/05 00:40:36;;;;;;;15.52;8.13;;;22.20;74.40;;;;;;6212864;23;20001;-74
2023/10/05 00:43:46;;;;;;;13.55;7.93;;;22.20;75.20;;;;;;6213445;23;20399;-73
2023/10/05 00:45:52;;;;;;;14.50;8.23;;;22.20;74.50;;;;;;6193316;23;20004;-74
2023/10/05 00:48:40;;;;;;;16.70;8.35;;;22.20;74.50;;;;;;6214067;23;20334;-73
2023/10/05 00:51:17;;;;;;;11.60;8.13;;;22.20;74.30;;;;;;6213657;23;20024;-73
2023/10/05 00:53:43;;;;;;;14.13;8.23;;;22.20;74.60;;;;;;6213816;23;20423;-72
2023/10/05 00:56:12;;;;;;;14.23;10.75;;;22.20;74.50;;;;;;6214018;23;20000;-74
2023/10/05 00:58:43;;;;;;;12.48;8.55;;;22.20;74.40;;;;;;6229166;23;20036;-74
2023/10/05 01:01:16;;;;;;;17.92;8.82;;;22.20;74.30;;;;;;6217424;23;20434;-74
2023/10/05 01:06:42;;;;;;;13.85;8.02;;;22.10;74.20;;;;;;6213580;23;20063;-72
2023/10/05 01:09:22;;;;;;;13.75;8.57;;;22.10;74.70;;;;;;6213901;23;20036;-73
2023/10/05 01:11:54;;;;;;;11.68;7.68;;;22.20;74.30;;;;;;6213730;23;20067;-73
2023/10/05 01:14:23;;;;;;;13.55;7.78;;;22.20;74.20;;;;;;6213536;23;20225;-73
2023/10/05 01:16:49;;;;;;;12.35;8.32;;;22.20;74.10;;;;;;6213510;23;20353;-74
2023/10/05 01:19:15;;;;;;;9.70;7.40;;;22.20;74.10;;;;;;6213295;23;20071;-73
2023/10/05 01:21:43;;;;;;;12.45;7.55;;;22.20;74.00;;;;;;6213738;23;20064;-73
2023/10/05 01:24:10;;;;;;;11.85;7.70;;;22.20;73.90;;;;;;6213531;23;20013;-73
2023/10/05 01:26:37;;;;;;;11.80;7.60;;;22.10;73.60;;;;;;6213730;23;20467;-73
2023/10/05 01:29:04;;;;;;;12.32;7.70;;;22.10;73.70;;;;;;6214010;23;20009;-73
2023/10/05 01:31:32;;;;;;;13.80;7.13;;;22.20;73.80;;;;;;6213678;23;20001;-73
2023/10/05 01:34:02;;;;;;;14.00;7.85;;;22.10;73.40;;;;;;6213106;23;20151;-73
2023/10/05 01:36:28;;;;;;;14.98;7.28;;;22.10;73.80;;;;;;6213409;23;20008;-73
2023/10/05 01:39:01;;;;;;;11.38;7.22;;;22.10;73.60;;;;;;6213379;23;19997;-73
2023/10/05 01:41:27;;;;;;;11.23;6.82;;;22.10;73.50;;;;;;6213364;23;20051;-73
2023/10/05 01:43:53;;;;;;;11.32;6.63;;;22.10;73.50;;;;;;6213189;23;20005;-73
2023/10/05 01:46:20;;;;;;;11.38;6.93;;;22.10;73.60;;;;;;6213575;23;20039;-73
2023/10/05 01:48:47;;;;;;;12.48;6.90;;;22.10;73.60;;;;;;6213283;23;20012;-73
2023/10/05 01:51:21;;;;;;;9.02;6.65;;;22.00;73.60;;;;;;6213711;23;20027;-73
2023/10/05 01:53:51;;;;;;;9.80;7.00;;;22.00;74.00;;;;;;6215154;23;20403;-73
2023/10/05 01:56:23;;;;;;;14.68;7.43;;;22.00;73.50;;;;;;6215176;23;20026;-73
2023/10/05 01:58:54;;;;;;;9.18;6.28;;;22.00;74.20;;;;;;6218203;23;20004;-72
2023/10/05 02:01:21;;;;;;;9.50;6.68;;;22.00;74.00;;;;;;6232809;23;20005;-73
2023/10/05 02:03:53;;;;;;;7.93;6.60;;;22.00;73.40;;;;;;6215441;23;20008;-74
2023/10/05 02:06:19;;;;;;;10.43;7.15;;;21.90;73.10;;;;;;6215144;23;20000;-73
2023/10/05 02:08:45;;;;;;;11.00;6.32;;;21.90;73.20;;;;;;6215186;23;20094;-73
2023/10/05 02:11:17;;;;;;;9.93;6.88;;;21.80;73.20;;;;;;6215454;23;20022;-73
2023/10/05 02:13:43;;;;;;;11.15;7.00;;;21.80;73.50;;;;;;6215006;23;20070;-74
2023/10/05 02:16:21;;;;;;;12.35;6.57;;;21.80;73.40;;;;;;6214923;23;20023;-73
2023/10/05 02:18:47;;;;;;;10.55;6.25;;;21.80;74.00;;;;;;6215126;23;20008;-73
2023/10/05 02:21:30;;;;;;;12.82;6.90;;;21.80;73.40;;;;;;6188457;23;20423;-73
2023/10/05 02:23:58;;;;;;;10.30;6.40;;;21.80;73.40;;;;;;6215067;23;20008;-73
2023/10/05 02:26:26;;;;;;;11.80;6.60;;;21.80;73.50;;;;;;6214877;23;20318;-73
2023/10/05 02:28:53;;;;;;;9.57;6.55;;;21.80;73.50;;;;;;6215451;23;20011;-73
2023/10/05 02:31:20;;;;;;;14.52;7.50;;;21.80;73.60;;;;;;6216658;23;20013;-74
2023/10/05 02:33:46;;;;;;;10.95;6.22;;;21.80;74.00;;;;;;6215298;23;20127;-73
2023/10/05 02:36:20;;;;;;;10.88;6.80;;;21.80;73.80;;;;;;6215013;23;20004;-73
2023/10/05 02:38:49;;;;;;;10.73;6.78;;;21.80;73.80;;;;;;6215001;23;20466;-73
2023/10/05 02:41:17;;;;;;;11.02;7.05;;;21.80;74.20;;;;;;6214749;23;20515;-73
2023/10/05 02:43:52;;;;;;;10.68;6.88;;;21.80;73.70;;;;;;6214416;23;20055;-71
2023/10/05 02:46:20;;;;;;;9.43;6.45;;;21.80;73.80;;;;;;6215087;23;20430;-72
2023/10/05 02:48:46;;;;;;;11.20;6.70;;;21.80;73.80;;;;;;6215077;23;20402;-73
2023/10/05 02:51:14;;;;;;;12.52;7.07;;;21.70;73.60;;;;;;6214697;23;20047;-73
2023/10/05 02:54:14;;;;;;;10.75;6.82;;;21.70;73.70;;;;;;6214935;23;20426;-74
2023/10/05 02:56:33;;;;;;;8.57;6.47;;;21.80;74.50;;;;;;6209096;23;20036;-72
2023/10/05 02:59:09;;;;;;;13.52;7.10;;;21.80;73.70;;;;;;6215190;23;20016;-72
2023/10/05 03:01:37;;;;;;;12.43;7.10;;;21.80;73.80;;;;;;6237686;23;20089;-74
2023/10/05 03:04:09;;;;;;;8.63;6.53;;;21.70;73.40;;;;;;6221517;23;20001;-73
2023/10/05 03:06:35;;;;;;;10.43;6.57;;;21.70;73.40;;;;;;6215061;23;20028;-73
2023/10/05 03:09:07;;;;;;;10.73;6.60;;;21.70;73.50;;;;;;6214560;23;20027;-73
2023/10/05 03:11:41;;;;;;;9.75;6.80;;;21.70;73.40;;;;;;6214852;23;20009;-73
2023/10/05 03:14:11;;;;;;;12.45;6.97;;;21.70;73.20;;;;;;6214587;23;20009;-73
2023/10/05 03:16:43;;;;;;;9.70;6.35;;;21.70;73.30;;;;;;6214626;23;20032;-73
2023/10/05 03:19:21;;;;;;;13.88;6.90;;;21.70;73.30;;;;;;6214558;23;20150;-73
2023/10/05 03:21:52;;;;;;;11.35;6.20;;;21.70;73.60;;;;;;6214461;23;20003;-73
2023/10/05 03:24:19;;;;;;;9.52;6.63;;;21.70;73.60;;;;;;6214423;23;20004;-73
2023/10/05 03:26:47;;;;;;;10.13;6.40;;;21.60;73.50;;;;;;6214601;23;20088;-74
2023/10/05 03:29:13;;;;;;;10.50;6.53;;;21.60;73.70;;;;;;6214348;23;20009;-73
2023/10/05 03:31:52;;;;;;;12.25;6.72;;;21.60;73.80;;;;;;6214567;23;20007;-75
2023/10/05 03:34:18;;;;;;;13.73;7.03;;;21.60;73.80;;;;;;6214384;23;20017;-73
2023/10/05 03:36:47;;;;;;;10.82;7.15;;;21.60;73.90;;;;;;6214268;23;20134;-73
2023/10/05 03:39:13;;;;;;;12.43;6.60;;;21.60;73.90;;;;;;6213881;23;20016;-73
2023/10/05 03:41:39;;;;;;;11.82;6.65;;;21.60;73.70;;;;;;6214512;23;20009;-73
2023/10/05 03:44:07;;;;;;;9.05;6.28;;;21.60;73.80;;;;;;6214132;23;20378;-73
2023/10/05 03:46:34;;;;;;;12.05;6.82;;;21.50;73.90;;;;;;6214093;23;20075;-73
2023/10/05 03:49:02;;;;;;;11.43;6.57;;;21.50;74.10;;;;;;6214024;23;20005;-73
2023/10/05 03:51:32;;;;;;;12.23;7.57;;;21.40;74.20;;;;;;6214099;23;20012;-72
2023/10/05 03:53:57;;;;;;;9.32;6.13;;;21.40;74.30;;;;;;6213952;23;20047;-71
2023/10/05 03:56:26;;;;;;;10.73;7.18;;;21.40;74.40;;;;;;6213969;23;19997;-73
2023/10/05 03:58:55;;;;;;;9.15;6.72;;;21.40;74.50;;;;;;6213792;23;20083;-73
2023/10/05 04:01:24;;;;;;;10.05;6.70;;;21.50;74.90;;;;;;6214107;23;20023;-73
2023/10/05 04:03:50;;;;;;;9.88;6.85;;;21.40;74.40;;;;;;6233225;23;20027;-73
2023/10/05 04:06:26;;;;;;;11.00;7.07;;;21.40;74.50;;;;;;6214213;23;20007;-73
2023/10/05 04:09:15;;;;;;;11.55;7.22;;;21.40;74.50;;;;;;6214043;23;20021;-73
2023/10/05 04:11:40;;;;;;;10.38;7.20;;;21.30;74.30;;;;;;6212838;23;20135;-73
2023/10/05 04:14:06;;;;;;;12.70;7.38;;;21.30;74.70;;;;;;6213926;23;20376;-73
2023/10/05 04:16:34;;;;;;;12.50;6.80;;;21.30;74.80;;;;;;6213860;23;20001;-73
2023/10/05 04:19:04;;;;;;;11.57;8.65;;;21.30;75.40;;;;;;6213902;23;20039;-72
2023/10/05 04:21:33;;;;;;;10.32;7.28;;;21.30;74.80;;;;;;6214092;23;20012;-72
2023/10/05 04:23:59;;;;;;;11.25;6.63;;;21.30;74.50;;;;;;6213930;23;20010;-73
2023/10/05 04:26:32;;;;;;;10.30;7.07;;;21.30;74.60;;;;;;6187354;23;20473;-73
2023/10/05 04:29:03;;;;;;;10.75;7.68;;;21.30;74.60;;;;;;6213866;23;20005;-73
2023/10/05 04:31:29;;;;;;;11.55;7.05;;;21.20;74.50;;;;;;6213676;23;20016;-74
2023/10/05 04:33:56;;;;;;;13.32;7.10;;;21.20;74.60;;;;;;6213474;23;20009;-73
2023/10/05 04:36:25;;;;;;;11.18;7.18;;;21.20;74.60;;;;;;6213795;23;20035;-73
2023/10/05 04:38:54;;;;;;;12.05;7.45;;;21.10;74.80;;;;;;6214037;23;20000;-73
2023/10/05 04:41:22;;;;;;;8.43;6.57;;;21.00;74.70;;;;;;6214277;23;20024;-72
2023/10/05 04:43:50;;;;;;;13.90;7.35;;;21.10;74.90;;;;;;6213909;23;20036;-73
2023/10/05 04:46:19;;;;;;;13.55;7.88;;;21.10;75.00;;;;;;6213722;23;20391;-73
2023/10/05 04:48:55;;;;;;;11.05;8.07;;;21.00;75.00;;;;;;6213841;23;20068;-74
2023/10/05 04:51:30;;;;;;;9.73;7.40;;;21.00;74.90;;;;;;6214785;23;20068;-74
2023/10/05 04:53:59;;;;;;;13.45;7.70;;;21.00;75.20;;;;;;6213471;23;20023;-73
2023/10/05 04:56:36;;;;;;;10.23;7.22;;;21.00;75.00;;;;;;6214138;23;20096;-73
2023/10/05 04:59:23;;;;;;;11.38;6.68;;;21.00;75.10;;;;;;6213821;23;20080;-74
2023/10/05 05:04:27;;;;;;;13.75;7.60;;;21.00;75.80;;;;;;6225469;23;19997;-74
2023/10/05 05:06:55;;;;;;;11.63;7.75;;;21.00;75.10;;;;;;6223433;23;20069;-74
2023/10/05 05:09:21;;;;;;;11.95;7.18;;;20.90;75.10;;;;;;6213308;23;20020;-73
2023/10/05 05:11:49;;;;;;;12.20;7.88;;;20.80;75.60;;;;;;6213716;23;20376;-73
2023/10/05 05:14:15;;;;;;;17.17;8.50;;;20.80;75.90;;;;;;6213859;23;20012;-74
2023/10/05 05:16:43;;;;;;;11.32;8.30;;;20.80;75.80;;;;;;6213807;23;19997;-73
2023/10/05 05:19:09;;;;;;;12.93;7.88;;;20.90;75.90;;;;;;6213626;23;20009;-72
2023/10/05 05:21:35;;;;;;;14.43;8.43;;;20.80;75.80;;;;;;6213859;23;20055;-73
2023/10/05 05:24:01;;;;;;;12.70;7.80;;;20.80;76.50;;;;;;6213767;23;20346;-73
2023/10/05 05:26:27;;;;;;;12.77;8.20;;;20.80;75.80;;;;;;6214162;23;20004;-74
2023/10/05 05:28:53;;;;;;;12.27;7.85;;;20.90;76.70;;;;;;6215760;23;20005;-74
2023/10/05 05:31:19;;;;;;;14.50;8.55;;;20.90;76.00;;;;;;6215584;23;20005;-73
2023/10/05 05:33:45;;;;;;;14.13;8.15;;;20.90;76.00;;;;;;6215402;23;20013;-74
2023/10/05 05:36:12;;;;;;;14.65;8.40;;;20.90;75.90;;;;;;6215659;23;20007;-75
2023/10/05 05:38:39;;;;;;;16.10;8.77;;;21.00;75.80;;;;;;6216170;23;20004;-76
2023/10/05 05:41:16;;;;;;;12.60;8.85;;;20.90;75.70;;;;;;6189273;23;20004;-71
2023/10/05 05:43:42;;;;;;;13.82;8.75;;;21.00;76.00;;;;;;6216044;23;20027;-72
2023/10/05 05:46:12;;;;;;;15.35;7.88;;;21.00;75.80;;;;;;6215233;23;20007;-73
2023/10/05 05:48:39;;;;;;;14.88;8.75;;;21.00;75.40;;;;;;6216003;23;20021;-74
2023/10/05 05:51:06;;;;;;;14.73;8.23;;;21.10;75.60;;;;;;6188690;23;20016;-74
2023/10/05 05:53:33;;;;;;;14.55;8.48;;;21.10;75.60;;;;;;6216092;23;20017;-73
2023/10/05 05:56:01;;;;;;;12.80;8.43;;;21.20;75.70;;;;;;6215453;23;20012;-74
2023/10/05 05:58:27;;;;;;;15.52;9.23;;;21.20;75.70;;;;;;6215371;23;20028;-74
2023/10/05 06:00:54;;;;;;;15.40;8.70;;;21.20;75.40;;;;;;6216000;23;20011;-73
2023/10/05 06:03:20;;;;;;;15.73;8.80;;;21.30;75.30;;;;;;6217357;23;20334;-78
2023/10/05 06:05:48;;;;;;;17.00;8.23;;;21.40;75.20;;;;;;6229041;23;20024;-76
2023/10/05 06:08:16;;;;;;;14.27;7.72;;;21.40;74.80;;;;;;6221937;23;20016;-76
2023/10/05 06:10:46;;;;;;;17.92;9.07;;;21.40;74.80;;;;;;6215752;23;20074;-77
2023/10/05 06:13:13;;;;;;;13.82;8.68;;;21.50;74.60;;;;;;6215726;23;20016;-74
2023/10/05 06:15:39;;;;;;;15.10;8.13;;;21.60;74.50;;;;;;6215543;23;20009;-71
2023/10/05 06:18:05;;;;;;;18.33;8.82;;;21.70;74.40;;;;;;6215635;23;20079;-73
2023/10/05 06:20:31;;;;;;;13.60;8.80;;;21.70;74.40;;;;;;6216053;23;20032;-72
2023/10/05 06:22:58;;;;;;;15.20;8.80;;;21.70;73.90;;;;;;6188999;23;20509;-72
2023/10/05 06:25:25;;;;;;;18.20;9.13;;;21.80;73.90;;;;;;6216104;23;20134;-72
2023/10/05 06:27:51;;;;;;;16.65;8.70;;;21.80;73.70;;;;;;6215419;23;20005;-74
2023/10/05 06:30:17;;;;;;;12.68;8.73;;;22.00;73.80;;;;;;6188848;23;20016;-73
2023/10/05 06:32:43;;;;;;;17.10;8.80;;;22.10;73.10;;;;;;6215351;23;20095;-72
2023/10/05 06:35:09;;;;;;;20.10;8.73;;;22.30;72.90;;;;;;6214946;23;20082;-72
2023/10/05 06:37:35;;;;;;;21.17;9.40;;;22.40;72.30;;;;;;6215017;23;20004;-72
2023/10/05 06:40:01;;;;;;;14.32;8.85;;;22.60;72.10;;;;;;6215051;23;20028;-71
2023/10/05 06:42:27;;;;;;;22.65;9.95;;;22.70;71.80;;;;;;6215217;23;20045;-72
2023/10/05 06:44:55;;;;;;;21.95;10.63;;;23.00;71.90;;;;;;6214849;23;20059;-71
2023/10/05 06:47:36;;;;;;;17.00;9.60;;;23.20;71.60;;;;;;6215000;23;20007;-71
2023/10/05 06:50:10;;;;;;;16.70;8.85;;;23.30;70.80;;;;;;6214875;23;20037;-71
2023/10/05 06:52:36;;;;;;;16.48;9.45;;;23.40;70.20;;;;;;6215107;23;20011;-72
2023/10/05 06:55:12;;;;;;;14.25;8.68;;;23.50;71.00;;;;;;6188100;23;20009;-72
2023/10/05 06:57:44;;;;;;;23.48;9.77;;;23.50;69.80;;;;;;6214899;23;20395;-74
2023/10/05 07:00:20;;;;;;;17.73;9.52;;;23.70;69.70;;;;;;6215156;23;20330;-72
2023/10/05 07:02:47;;;;;;;17.08;9.40;;;23.80;69.40;;;;;;6215069;23;20426;-72
2023/10/05 07:05:14;;;;;;;14.07;8.98;;;24.00;68.90;;;;;;6220480;23;20015;-75
2023/10/05 07:07:43;;;;;;;17.00;9.25;;;24.00;68.60;;;;;;6223900;23;20443;-72
2023/10/05 07:10:13;;;;;;;20.85;9.10;;;24.10;69.20;;;;;;6213015;23;20020;-72
2023/10/05 07:12:46;;;;;;;24.00;9.80;;;24.10;68.30;;;;;;6189333;23;20462;-72
2023/10/05 07:15:15;;;;;;;18.02;9.55;;;24.30;68.50;;;;;;6214567;23;20000;-72
2023/10/05 07:17:41;;;;;;;19.98;9.85;;;24.40;68.30;;;;;;6188155;23;20435;-71
2023/10/05 07:20:13;;;;;;;15.95;8.80;;;24.40;68.40;;;;;;6215121;23;20059;-73
2023/10/05 07:22:40;;;;;;;18.58;10.32;;;24.50;68.00;;;;;;6214871;23;20355;-73
2023/10/05 07:25:08;;;;;;;20.23;10.00;;;24.60;68.20;;;;;;6214626;23;19992;-73
2023/10/05 07:27:35;;;;;;;21.83;9.50;;;24.60;68.00;;;;;;6214905;23;20000;-73
2023/10/05 07:30:03;;;;;;;26.48;10.60;;;24.70;68.30;;;;;;6214122;23;20316;-72
2023/10/05 07:32:30;;;;;;;29.27;11.00;;;24.80;68.20;;;;;;6214805;23;20016;-74
2023/10/05 07:34:56;;;;;;;21.38;10.13;;;24.90;68.50;;;;;;6214762;23;20000;-74
2023/10/05 07:37:22;;;;;;;24.73;9.48;;;24.90;68.50;;;;;;6215051;23;20430;-72
2023/10/05 07:39:50;;;;;;;20.35;9.90;;;24.90;68.30;;;;;;6214600;23;19996;-73
2023/10/05 07:42:17;;;;;;;17.23;10.25;;;24.80;68.60;;;;;;6214312;23;20500;-72
2023/10/05 07:44:43;;;;;;;18.95;9.35;;;24.80;68.60;;;;;;6214252;23;20008;-72
2023/10/05 07:47:13;;;;;;;17.63;10.18;;;24.80;68.80;;;;;;6214416;23;20024;-71
2023/10/05 07:49:41;;;;;;;22.30;9.13;;;24.70;69.20;;;;;;6214594;23;20023;-73
2023/10/05 07:52:09;;;;;;;17.85;9.68;;;24.70;69.50;;;;;;6214654;23;20000;-71
2023/10/05 07:54:38;;;;;;;20.05;9.63;;;24.70;69.90;;;;;;6214652;23;20001;-74
2023/10/05 07:57:04;;;;;;;22.17;10.15;;;24.60;69.80;;;;;;6215517;23;20080;-72
2023/10/05 07:59:31;;;;;;;15.70;9.93;;;24.60;70.30;;;;;;6215587;23;20009;-74
2023/10/05 08:01:57;;;;;;;23.08;9.82;;;24.50;69.60;;;;;;6214607;23;20446;-72
2023/10/05 08:04:24;;;;;;;16.42;9.25;;;24.50;70.70;;;;;;6215010;23;20489;-75
2023/10/05 08:06:50;;;;;;;19.48;9.18;;;24.40;70.50;;;;;;6230735;23;20481;-76
2023/10/05 08:09:20;;;;;;;24.10;9.50;;;24.50;70.40;;;;;;6219885;23;20027;-76
2023/10/05 08:11:53;;;;;;;21.83;10.43;;;24.40;71.30;;;;;;6215098;23;20493;-76
2023/10/05 08:14:20;;;;;;;125.18;21.42;;;24.40;70.00;;;;;;6188150;23;20316;-76
2023/10/05 08:16:46;;;;;;;65.32;13.68;;;24.40;71.40;;;;;;6214804;23;20001;-76
2023/10/05 08:19:12;;;;;;;28.50;10.52;;;24.40;71.60;;;;;;6214432;23;20007;-73
2023/10/05 08:21:38;;;;;;;21.08;9.80;;;24.40;71.30;;;;;;6214479;23;19997;-76
2023/10/05 08:24:05;;;;;;;19.70;10.00;;;24.40;71.20;;;;;;6214178;23;20087;-74
2023/10/05 08:26:31;;;;;;;23.25;10.48;;;24.40;71.20;;;;;;6187383;23;20051;-75
2023/10/05 08:28:57;;;;;;;22.42;10.73;;;24.40;72.10;;;;;;6214522;23;20350;-74
2023/10/05 08:31:24;;;;;;;26.40;9.93;;;24.40;71.70;;;;;;6214018;23;19996;-76
2023/10/05 08:33:55;;;;;;;29.85;10.38;;;24.40;71.70;;;;;;6213968;23;20020;-78
2023/10/05 08:36:22;;;;;;;19.13;8.65;;;24.40;71.80;;;;;;6213833;23;20023;-80
2023/10/05 08:38:48;;;;;;;14.63;8.77;;;24.40;72.30;;;;;;6214192;23;20095;-79
2023/10/05 08:41:34;;;;;;;18.38;9.25;;;24.40;72.50;;;;;;6214727;23;20142;-78
2023/10/05 08:44:01;;;;;;;22.02;8.70;;;24.40;72.70;;;;;;6214707;23;20008;-77
2023/10/05 08:46:29;;;;;;;23.27;9.80;;;24.40;72.50;;;;;;6214102;23;20077;-78
2023/10/05 08:48:57;;;;;;;19.00;8.82;;;24.40;72.90;;;;;;6214521;23;20008;-76
2023/10/05 08:51:24;;;;;;;18.35;8.82;;;24.40;73.00;;;;;;6214780;23;20047;-78
2023/10/05 08:53:55;;;;;;;16.52;9.35;;;24.50;73.00;;;;;;6214443;23;20017;-78
2023/10/05 08:56:22;;;;;;;15.13;8.77;;;24.50;73.30;;;;;;6214639;23;20005;-79
2023/10/05 08:58:48;;;;;;;16.40;7.70;;;24.50;73.20;;;;;;6214487;23;20016;-76
2023/10/05 09:01:33;;;;;;;18.52;7.93;;;24.60;73.60;;;;;;6215424;23;20008;-77
2023/10/05 09:04:23;;;;;;;12.25;7.65;;;24.60;73.80;;;;;;6216572;23;20004;-77
2023/10/05 09:07:08;;;;;;;31.27;8.82;;;24.70;74.30;;;;;;6220584;23;20052;-75
2023/10/05 09:09:54;;;;;;;19.88;8.32;;;24.70;73.50;;;;;;6229704;23;20024;-76
2023/10/05 09:12:34;;;;;;;19.20;7.30;;;24.70;74.40;;;;;;6216438;23;20330;-78
2023/10/05 09:15:22;;;;;;;17.33;8.60;;;24.80;73.60;;;;;;6215930;23;20009;-78
2023/10/05 09:18:17;;;;;;;17.88;8.18;;;24.90;74.50;;;;;;6216441;23;20012;-77
2023/10/05 09:20:47;;;;;;;20.38;7.63;;;25.00;74.30;;;;;;6215403;23;20065;-79
2023/10/05 09:23:24;;;;;;;18.40;7.05;;;25.00;73.80;;;;;;6216527;23;20020;-81
2023/10/05 09:25:50;;;;;;;19.10;7.10;;;25.00;72.90;;;;;;6217289;23;20004;-79
2023/10/05 09:28:44;;;;;;;12.63;6.47;;;25.10;73.80;;;;;;6215972;23;20326;-80
2023/10/05 09:31:11;;;;;;;11.65;5.88;;;25.10;73.40;;;;;;6189500;23;20450;-77
2023/10/05 09:33:49;;;;;;;16.02;6.55;;;25.30;72.50;;;;;;6216511;23;20027;-75
2023/10/05 09:36:19;;;;;;;11.80;5.95;;;25.30;72.70;;;;;;6215440;23;19996;-77
2023/10/05 09:38:46;;;;;;;14.38;7.03;;;25.40;72.40;;;;;;6216008;23;20079;-72
2023/10/05 09:41:15;;;;;;;11.63;6.15;;;25.50;71.90;;;;;;6216424;23;20000;-77
2023/10/05 09:43:44;;;;;;;13.25;5.78;;;25.50;72.10;;;;;;6216659;23;20032;-77
2023/10/05 09:46:10;;;;;;;11.02;5.88;;;25.50;71.60;;;;;;6215692;23;20016;-79
2023/10/05 09:48:40;;;;;;;14.48;6.07;;;25.60;72.00;;;;;;6215681;23;20427;-77
2023/10/05 09:51:09;;;;;;;16.10;6.05;;;25.60;71.60;;;;;;6216253;23;19996;-77
2023/10/05 09:53:38;;;;;;;19.60;6.75;;;25.70;71.50;;;;;;6215241;23;20024;-75
2023/10/05 09:56:04;;;;;;;13.70;5.93;;;25.70;71.40;;;;;;6215967;23;20004;-80
2023/10/05 09:58:30;;;;;;;10.80;6.25;;;25.80;71.50;;;;;;6215878;23;20028;-79
2023/10/05 10:00:56;;;;;;;10.20;5.30;;;25.90;71.30;;;;;;6215189;23;19997;-78
2023/10/05 10:03:23;;;;;;;12.00;5.07;;;25.90;70.60;;;;;;6215234;23;20035;-78
2023/10/05 10:05:59;;;;;;;11.95;5.55;;;25.90;70.30;;;;;;6215442;23;20004;-77
2023/10/05 10:08:29;;;;;;;11.25;5.63;;;25.90;69.70;;;;;;6228202;23;20020;-73
2023/10/05 10:11:07;;;;;;;18.17;6.60;;;26.00;69.40;;;;;;6217698;23;20004;-79
2023/10/05 10:13:38;;;;;;;12.13;6.07;;;26.00;69.60;;;;;;6216233;23;20087;-84
2023/10/05 10:16:17;;;;;;;11.38;5.53;;;26.00;68.90;;;;;;6216649;23;20068;-83
2023/10/05 10:18:44;;;;;;;11.65;5.50;;;26.00;67.30;;;;;;6215600;23;20000;-83
2023/10/05 10:21:25;;;;;;;11.55;5.18;;;26.00;67.90;;;;;;6216264;23;20059;-83
2023/10/05 10:24:04;;;;;;;9.10;5.15;;;26.10;66.80;;;;;;6215917;23;20008;-82
2023/10/05 10:26:46;;;;;;;15.38;5.15;;;26.20;66.70;;;;;;6215323;23;20068;-84
2023/10/05 10:29:16;;;;;;;10.85;5.43;;;26.30;66.50;;;;;;6215695;23;20004;-84
2023/10/05 10:31:48;;;;;;;9.18;5.30;;;26.40;67.10;;;;;;6216245;23;20008;-83
2023/10/05 10:34:28;;;;;;;9.10;5.45;;;26.50;66.20;;;;;;6220696;23;20009;-83
2023/10/05 10:36:56;;;;;;;14.27;5.63;;;26.50;66.60;;;;;;6223461;23;20070;-82
2023/10/05 10:39:23;;;;;;;13.38;5.13;;;26.50;66.60;;;;;;6221821;23;20124;-83
2023/10/05 10:42:04;;;;;;;12.52;5.72;;;26.50;66.60;;;;;;6215470;23;20496;-82
2023/10/05 10:44:46;;;;;;;7.93;4.90;;;26.50;66.70;;;;;;6216158;23;20004;-83
2023/10/05 10:47:12;;;;;;;9.82;5.20;;;26.50;66.80;;;;;;6215339;23;20001;-81
2023/10/05 10:49:40;;;;;;;11.75;5.47;;;26.60;66.90;;;;;;6215493;23;20123;-82
2023/10/05 10:52:10;;;;;;;10.07;5.25;;;26.70;66.70;;;;;;6215146;23;20498;-84
2023/10/05 10:54:48;;;;;;;6.93;4.40;;;26.80;66.40;;;;;;6215948;23;20014;-84
2023/10/05 10:57:20;;;;;;;10.07;4.93;;;26.90;65.80;;;;;;6215681;23;20012;-83
2023/10/05 10:59:46;;;;;;;11.77;5.05;;;26.90;65.90;;;;;;6215283;23;20449;-83
2023/10/05 11:02:19;;;;;;;13.68;5.15;;;26.90;66.00;;;;;;6215662;23;19997;-83
2023/10/05 11:04:47;;;;;;;9.30;4.85;;;26.90;65.80;;;;;;6218869;23;20011;-82
2023/10/05 11:07:13;;;;;;;7.65;5.05;;;27.00;65.90;;;;;;6238443;23;20019;-83
2023/10/05 11:09:47;;;;;;;7.03;4.50;;;27.00;65.90;;;;;;6215457;23;20017;-81
2023/10/05 11:12:16;;;;;;;8.32;4.93;;;27.10;65.40;;;;;;6216592;23;20009;-85
2023/10/05 11:14:43;;;;;;;11.95;5.50;;;27.20;65.30;;;;;;6220799;23;20000;-84
2023/10/05 11:17:35;;;;;;;12.45;5.20;;;27.20;65.10;;;;;;6215351;23;20083;-80
2023/10/05 11:20:15;;;;;;;10.82;5.25;;;27.40;65.20;;;;;;6214910;23;20000;-81
2023/10/05 11:22:43;;;;;;;9.45;5.95;;;27.50;65.00;;;;;;6215576;23;20366;-80
2023/10/05 11:25:17;;;;;;;10.43;5.32;;;27.60;64.90;;;;;;6215184;23;20004;-75
2023/10/05 11:27:48;;;;;;;12.00;5.93;;;27.60;64.90;;;;;;6216000;23;20008;-80
2023/10/05 11:30:24;;;;;;;7.22;5.30;;;27.60;64.60;;;;;;6215917;23;20008;-80
2023/10/05 11:32:56;;;;;;;11.63;5.82;;;27.60;64.50;;;;;;6188257;23;20013;-79
2023/10/05 11:35:28;;;;;;;10.80;6.78;;;27.70;64.40;;;;;;6215207;23;20008;-78
2023/10/05 11:37:58;;;;;;;10.80;5.03;;;27.70;64.40;;;;;;6215335;23;20106;-75
2023/10/05 11:40:30;;;;;;;12.68;5.88;;;27.80;63.90;;;;;;6216221;23;20339;-81
2023/10/05 11:42:56;;;;;;;16.10;5.75;;;27.80;64.10;;;;;;6216291;23;20011;-82
2023/10/05 11:45:23;;;;;;;9.70;5.43;;;27.90;63.40;;;;;;6215362;23;20001;-80
2023/10/05 11:47:53;;;;;;;8.95;4.78;;;27.90;63.20;;;;;;6215330;23;20016;-81
2023/10/05 11:50:32;;;;;;;8.20;4.55;;;27.80;62.70;;;;;;6215901;23;20438;-82
2023/10/05 11:52:59;;;;;;;16.73;8.35;;;27.80;63.00;;;;;;6216510;23;20055;-81
2023/10/05 11:55:25;;;;;;;10.27;5.18;;;27.70;63.10;;;;;;6214803;23;20071;-82
2023/10/05 11:57:52;;;;;;;12.80;5.03;;;27.70;62.70;;;;;;6215711;23;20374;-82
2023/10/05 12:00:18;;;;;;;13.82;7.47;;;27.70;62.60;;;;;;6215748;23;20091;-82
2023/10/05 12:02:45;;;;;;;11.10;6.55;;;27.80;62.80;;;;;;6219007;23;20001;-82
2023/10/05 12:05:11;;;;;;;10.30;5.20;;;27.80;62.70;;;;;;6235778;23;20107;-82
2023/10/05 12:07:41;;;;;;;11.70;5.32;;;27.90;62.30;;;;;;6215599;23;20084;-81
2023/10/05 12:10:09;;;;;;;9.32;5.65;;;27.90;62.00;;;;;;6214403;23;20400;-82
2023/10/05 12:12:43;;;;;;;9.23;5.00;;;27.90;61.90;;;;;;6215154;23;20099;-81
2023/10/05 12:15:12;;;;;;;14.80;5.75;;;27.90;61.90;;;;;;6215278;23;20001;-83
2023/10/05 12:17:43;;;;;;;9.43;5.75;;;27.90;62.00;;;;;;6216093;23;20001;-81
2023/10/05 12:20:13;;;;;;;8.85;4.80;;;27.80;62.00;;;;;;6215348;23;20004;-82
2023/10/05 12:22:39;;;;;;;8.23;4.28;;;27.80;61.80;;;;;;6214808;23;20000;-83
2023/10/05 12:25:07;;;;;;;12.80;5.18;;;27.80;61.70;;;;;;6214939;23;20008;-81
2023/10/05 12:27:36;;;;;;;11.32;5.22;;;27.80;61.80;;;;;;6214338;23;20071;-82
2023/10/05 12:30:10;;;;;;;11.52;5.20;;;27.90;61.60;;;;;;6215079;23;20087;-81
2023/10/05 12:32:38;;;;;;;8.65;4.63;;;27.90;61.20;;;;;;6213333;23;20017;-82
2023/10/05 12:35:06;;;;;;;17.25;4.30;;;28.00;61.00;;;;;;6216040;23;20399;-82
2023/10/05 12:37:32;;;;;;;13.35;6.20;;;28.10;60.90;;;;;;6215241;23;20039;-84
2023/10/05 12:40:05;;;;;;;12.45;5.10;;;28.20;61.00;;;;;;6215135;23;20345;-83
2023/10/05 12:42:30;;;;;;;10.20;5.30;;;28.20;60.70;;;;;;6214684;23;20051;-82
2023/10/05 12:44:56;;;;;;;11.38;5.30;;;28.20;60.70;;;;;;6215682;23;20000;-81
2023/10/05 12:47:22;;;;;;;10.45;5.43;;;28.20;60.90;;;;;;6214903;23;20008;-82
2023/10/05 12:49:48;;;;;;;13.57;5.55;;;28.30;61.20;;;;;;6214639;23;20446;-82
2023/10/05 12:52:16;;;;;;;10.65;5.40;;;28.30;61.00;;;;;;6214528;23;20001;-81
2023/10/05 12:54:43;;;;;;;9.02;5.03;;;28.30;61.30;;;;;;6216020;23;20096;-81
2023/10/05 12:57:10;;;;;;;14.07;5.68;;;28.20;61.30;;;;;;6188695;23;20017;-82